sensor_id;sensor_type;location;lat;lon;timestamp;pressure;altitude;pressure_sealevel;temperature;humidity
36062;BME280;22123;52.412;20.970;2023-07-24T00:01:32;99843.13;;;16.71;100.00
36062;BME280;22123;52.412;20.970;2023-07-24T00:03:58;99817.97;;;16.57;100.00
36062;BME280;22123;52.412;20.970;2023-07-24T00:06:24;99845.25;;;16.68;100.00
36062;BME280;22123;52.412;20.970;2023-07-24T00:08:50;99854.00;;;16.71;100.00
36062;BME280;22123;52.412;20.970;2023-07-24T00:11:15;99836.00;;;16.69;100.00
36062;BME280;22123;52.412;20.970;2023-07-24T00:13:41;99816.69;;;16.59;100.00
36062;BME280;22123;52.412;20.970;2023-07-24T00:16:07;99841.91;;;16.66;100.00
36062;BME280;22123;52.412;20.970;2023-07-24T00:18:33;99830.28;;;16.59;100.00
36062;BME280;22123;52.412;20.970;2023-07-24T00:20:59;99847.34;;;16.66;100.00
36062;BME280;22123;52.412;20.970;2023-07-24T00:23:25;99836.56;;;16.60;100.00
36062;BME280;22123;52.412;20.970;2023-07-24T00:25:50;99841.91;;;16.66;100.00
36062;BME280;22123;52.412;20.970;2023-07-24T00:28:16;99807.44;;;16.48;100.00
36062;BME280;22123;52.412;20.970;2023-07-24T00:30:42;99838.38;;;16.66;100.00
36062;BME280;22123;52.412;20.970;2023-07-24T00:33:08;99811.78;;;16.49;100.00
36062;BME280;22123;52.412;20.970;2023-07-24T00:35:34;99836.47;;;16.66;100.00
36062;BME280;22123;52.412;20.970;2023-07-24T00:38:00;99825.09;;;16.58;100.00
36062;BME280;22123;52.412;20.970;2023-07-24T00:40:25;99828.31;;;16.66;100.00
36062;BME280;22123;52.412;20.970;2023-07-24T00:42:51;99828.41;;;16.60;100.00
36062;BME280;22123;52.412;20.970;2023-07-24T00:45:17;99837.53;;;16.65;100.00
36062;BME280;22123;52.412;20.970;2023-07-24T00:47:43;99836.13;;;16.63;100.00
36062;BME280;22123;52.412;20.970;2023-07-24T00:50:09;99835.03;;;16.64;100.00
36062;BME280;22123;52.412;20.970;2023-07-24T00:52:36;99815.94;;;16.52;100.00
36062;BME280;22123;52.412;20.970;2023-07-24T00:55:02;99800.19;;;16.42;100.00
36062;BME280;22123;52.412;20.970;2023-07-24T00:57:28;99817.69;;;16.46;100.00
36062;BME280;22123;52.412;20.970;2023-07-24T00:59:54;99844.03;;;16.64;100.00
36062;BME280;22123;52.412;20.970;2023-07-24T01:02:21;99817.84;;;16.51;100.00
36062;BME280;22123;52.412;20.970;2023-07-24T01:04:47;99834.44;;;16.62;100.00
36062;BME280;22123;52.412;20.970;2023-07-24T01:07:13;99839.34;;;16.72;100.00
36062;BME280;22123;52.412;20.970;2023-07-24T01:09:38;99840.75;;;16.74;100.00
36062;BME280;22123;52.412;20.970;2023-07-24T01:12:13;99842.19;;;16.77;100.00
36062;BME280;22123;52.412;20.970;2023-07-24T01:14:54;99841.75;;;16.80;100.00
36062;BME280;22123;52.412;20.970;2023-07-24T01:17:23;99847.09;;;16.86;100.00
36062;BME280;22123;52.412;20.970;2023-07-24T01:19:54;99831.03;;;16.66;100.00
36062;BME280;22123;52.412;20.970;2023-07-24T01:27:46;99853.66;;;16.97;100.00
36062;BME280;22123;52.412;20.970;2023-07-24T01:30:13;99860.78;;;16.98;100.00
36062;BME280;22123;52.412;20.970;2023-07-24T01:32:39;99848.09;;;16.92;100.00
36062;BME280;22123;52.412;20.970;2023-07-24T01:35:05;99873.66;;;17.21;100.00
36062;BME280;22123;52.412;20.970;2023-07-24T01:37:31;99837.78;;;17.13;100.00
36062;BME280;22123;52.412;20.970;2023-07-24T01:40:00;99849.31;;;17.27;100.00
36062;BME280;22123;52.412;20.970;2023-07-24T01:42:26;99851.00;;;17.40;100.00
36062;BME280;22123;52.412;20.970;2023-07-24T01:44:54;99852.25;;;17.55;100.00
36062;BME280;22123;52.412;20.970;2023-07-24T01:47:20;99842.88;;;17.51;100.00
36062;BME280;22123;52.412;20.970;2023-07-24T01:49:46;99824.97;;;17.44;100.00
36062;BME280;22123;52.412;20.970;2023-07-24T01:52:12;99865.75;;;17.74;100.00
36062;BME280;22123;52.412;20.970;2023-07-24T01:54:38;99847.97;;;17.60;100.00
36062;BME280;22123;52.412;20.970;2023-07-24T01:57:04;99865.28;;;17.77;100.00
36062;BME280;22123;52.412;20.970;2023-07-24T01:59:29;99859.47;;;17.73;100.00
36062;BME280;22123;52.412;20.970;2023-07-24T02:01:55;99857.13;;;17.77;100.00
36062;BME280;22123;52.412;20.970;2023-07-24T02:04:21;99835.53;;;17.64;100.00
36062;BME280;22123;52.412;20.970;2023-07-24T02:06:48;99844.31;;;17.66;100.00
36062;BME280;22123;52.412;20.970;2023-07-24T02:09:14;99847.53;;;17.63;100.00
36062;BME280;22123;52.412;20.970;2023-07-24T02:11:40;99830.56;;;17.61;100.00
36062;BME280;22123;52.412;20.970;2023-07-24T02:14:07;99844.56;;;17.64;100.00
36062;BME280;22123;52.412;20.970;2023-07-24T02:16:33;99861.50;;;17.78;100.00
36062;BME280;22123;52.412;20.970;2023-07-24T02:18:59;99844.56;;;17.64;100.00
36062;BME280;22123;52.412;20.970;2023-07-24T02:21:25;99865.53;;;17.76;100.00
36062;BME280;22123;52.412;20.970;2023-07-24T02:23:51;99834.59;;;17.58;100.00
36062;BME280;22123;52.412;20.970;2023-07-24T02:26:17;99829.63;;;17.55;100.00
36062;BME280;22123;52.412;20.970;2023-07-24T02:28:42;99844.31;;;17.66;100.00
36062;BME280;22123;52.412;20.970;2023-07-24T02:31:08;99852.59;;;17.71;100.00
36062;BME280;22123;52.412;20.970;2023-07-24T02:33:34;99852.84;;;17.69;100.00
36062;BME280;22123;52.412;20.970;2023-07-24T02:36:00;99862.19;;;17.73;100.00
36062;BME280;22123;52.412;20.970;2023-07-24T02:38:26;99843.84;;;17.57;100.00
36062;BME280;22123;52.412;20.970;2023-07-24T02:40:52;99843.59;;;17.59;100.00
36062;BME280;22123;52.412;20.970;2023-07-24T02:43:18;99855.31;;;17.59;100.00
36062;BME280;22123;52.412;20.970;2023-07-24T02:45:44;99861.72;;;17.65;100.00
36062;BME280;22123;52.412;20.970;2023-07-24T02:48:09;99835.53;;;17.52;100.00
36062;BME280;22123;52.412;20.970;2023-07-24T02:50:35;99859.00;;;17.77;100.00
36062;BME280;22123;52.412;20.970;2023-07-24T02:53:01;99835.44;;;17.70;100.00
36062;BME280;22123;52.412;20.970;2023-07-24T02:55:27;99848.97;;;17.77;100.00
36062;BME280;22123;52.412;20.970;2023-07-24T02:57:53;99863.63;;;17.88;100.00
36062;BME280;22123;52.412;20.970;2023-07-24T03:00:18;99829.53;;;17.73;100.00
36062;BME280;22123;52.412;20.970;2023-07-24T03:02:44;99833.56;;;17.83;100.00
36062;BME280;22123;52.412;20.970;2023-07-24T03:05:10;99854.69;;;17.99;100.00
36062;BME280;22123;52.412;20.970;2023-07-24T03:07:36;99831.78;;;17.88;100.00
36062;BME280;22123;52.412;20.970;2023-07-24T03:10:02;99857.88;;;18.08;100.00
36062;BME280;22123;52.412;20.970;2023-07-24T03:12:28;99849.59;;;18.15;100.00
36062;BME280;22123;52.412;20.970;2023-07-24T03:14:53;99846.97;;;18.20;100.00
36062;BME280;22123;52.412;20.970;2023-07-24T03:17:19;99867.59;;;18.28;100.00
36062;BME280;22123;52.412;20.970;2023-07-24T03:19:48;99857.41;;;18.23;100.00
36062;BME280;22123;52.412;20.970;2023-07-24T03:22:14;99856.13;;;18.14;100.00
36062;BME280;22123;52.412;20.970;2023-07-24T03:24:39;99874.00;;;18.21;100.00
36062;BME280;22123;52.412;20.970;2023-07-24T03:27:05;99879.31;;;18.28;100.00
36062;BME280;22123;52.412;20.970;2023-07-24T03:29:31;99844.59;;;18.12;100.00
36062;BME280;22123;52.412;20.970;2023-07-24T03:31:57;99858.59;;;18.15;100.00
36062;BME280;22123;52.412;20.970;2023-07-24T03:34:23;99859.78;;;18.19;100.00
36062;BME280;22123;52.412;20.970;2023-07-24T03:36:49;99844.84;;;18.10;100.00
36062;BME280;22123;52.412;20.970;2023-07-24T03:39:14;99868.91;;;18.25;100.00
36062;BME280;22123;52.412;20.970;2023-07-24T03:41:41;99849.09;;;18.06;100.00
36062;BME280;22123;52.412;20.970;2023-07-24T03:44:08;99866.63;;;18.10;100.00
36062;BME280;22123;52.412;20.970;2023-07-24T03:46:34;99867.25;;;18.00;100.00
36062;BME280;22123;52.412;20.970;2023-07-24T03:49:00;99867.50;;;17.99;100.00
36062;BME280;22123;52.412;20.970;2023-07-24T03:51:26;99873.13;;;17.97;100.00
36062;BME280;22123;52.412;20.970;2023-07-24T03:53:52;99882.97;;;18.10;100.00
36062;BME280;22123;52.412;20.970;2023-07-24T03:56:18;99858.59;;;17.92;100.00
36062;BME280;22123;52.412;20.970;2023-07-24T03:58:44;99884.88;;;18.10;100.00
36062;BME280;22123;52.412;20.970;2023-07-24T04:01:10;99871.97;;;17.93;100.00
36062;BME280;22123;52.412;20.970;2023-07-24T04:03:36;99870.56;;;17.90;100.00
36062;BME280;22123;52.412;20.970;2023-07-24T04:06:02;99885.94;;;18.08;100.00
36062;BME280;22123;52.412;20.970;2023-07-24T04:08:28;99861.31;;;18.03;100.00
36062;BME280;22123;52.412;20.970;2023-07-24T04:10:54;99854.44;;;18.13;100.00
36062;BME280;22123;52.412;20.970;2023-07-24T04:13:20;99794.75;;;17.76;100.00
36062;BME280;22123;52.412;20.970;2023-07-24T04:15:45;99847.69;;;18.15;100.00
36062;BME280;22123;52.412;20.970;2023-07-24T04:18:11;99877.41;;;18.29;100.00
36062;BME280;22123;52.412;20.970;2023-07-24T04:20:37;99855.53;;;18.23;100.00
36062;BME280;22123;52.412;20.970;2023-07-24T04:23:03;99882.75;;;18.47;100.00
36062;BME280;22123;52.412;20.970;2023-07-24T04:25:29;99886.41;;;18.53;100.00
36062;BME280;22123;52.412;20.970;2023-07-24T04:27:55;99891.16;;;18.57;100.00
36062;BME280;22123;52.412;20.970;2023-07-24T04:30:20;99848.88;;;18.31;100.00
36062;BME280;22123;52.412;20.970;2023-07-24T04:32:46;99881.09;;;18.46;100.00
36062;BME280;22123;52.412;20.970;2023-07-24T04:35:12;99865.31;;;18.36;100.00
36062;BME280;22123;52.412;20.970;2023-07-24T04:37:38;99874.91;;;18.51;100.00
36062;BME280;22123;52.412;20.970;2023-07-24T04:40:04;99840.34;;;18.28;100.00
36062;BME280;22123;52.412;20.970;2023-07-24T04:42:30;99853.13;;;18.39;100.00
36062;BME280;22123;52.412;20.970;2023-07-24T04:44:56;99892.19;;;18.56;100.00
36062;BME280;22123;52.412;20.970;2023-07-24T04:47:22;99887.59;;;18.57;100.00
36062;BME280;22123;52.412;20.970;2023-07-24T04:49:48;99883.44;;;18.66;100.00
36062;BME280;22123;52.412;20.970;2023-07-24T04:52:14;99881.88;;;18.70;100.00
36062;BME280;22123;52.412;20.970;2023-07-24T04:54:40;99884.50;;;18.77;100.00
36062;BME280;22123;52.412;20.970;2023-07-24T04:57:06;99865.84;;;18.74;100.00
36062;BME280;22123;52.412;20.970;2023-07-24T04:59:32;99865.88;;;18.62;100.00
36062;BME280;22123;52.412;20.970;2023-07-24T05:01:57;99874.06;;;18.62;100.00
36062;BME280;22123;52.412;20.970;2023-07-24T05:04:23;99888.50;;;18.74;100.00
36062;BME280;22123;52.412;20.970;2023-07-24T05:06:49;99894.19;;;18.85;100.00
36062;BME280;22123;52.412;20.970;2023-07-24T05:09:15;99870.13;;;18.82;100.00
36062;BME280;22123;52.412;20.970;2023-07-24T05:11:41;99889.53;;;18.97;100.00
36062;BME280;22123;52.412;20.970;2023-07-24T05:14:07;99901.88;;;19.00;100.00
36062;BME280;22123;52.412;20.970;2023-07-24T05:16:33;99878.88;;;18.84;100.00
36062;BME280;22123;52.412;20.970;2023-07-24T05:18:59;99882.22;;;18.86;100.00
36062;BME280;22123;52.412;20.970;2023-07-24T05:21:25;99861.94;;;18.82;100.00
36062;BME280;22123;52.412;20.970;2023-07-24T05:23:50;99888.00;;;19.01;100.00
36062;BME280;22123;52.412;20.970;2023-07-24T05:26:16;99874.16;;;18.91;100.00
36062;BME280;22123;52.412;20.970;2023-07-24T05:28:42;99871.66;;;18.77;100.00
36062;BME280;22123;52.412;20.970;2023-07-24T05:31:08;99867.88;;;18.79;100.00
36062;BME280;22123;52.412;20.970;2023-07-24T05:33:34;99873.91;;;18.81;100.00
36062;BME280;22123;52.412;20.970;2023-07-24T05:36:04;99876.31;;;18.77;100.00
36062;BME280;22123;52.412;20.970;2023-07-24T05:38:30;99871.44;;;18.79;100.00
36062;BME280;22123;52.412;20.970;2023-07-24T05:41:02;99889.09;;;18.88;100.00
36062;BME280;22123;52.412;20.970;2023-07-24T05:43:29;99875.91;;;18.85;100.00
36062;BME280;22123;52.412;20.970;2023-07-24T05:45:57;99888.84;;;18.90;100.00
36062;BME280;22123;52.412;20.970;2023-07-24T05:48:24;99868.47;;;18.81;100.00
36062;BME280;22123;52.412;20.970;2023-07-24T05:50:50;99896.09;;;18.96;100.00
36062;BME280;22123;52.412;20.970;2023-07-24T05:53:16;99890.28;;;18.81;100.00
36062;BME280;22123;52.412;20.970;2023-07-24T05:55:42;99907.47;;;18.93;100.00
36062;BME280;22123;52.412;20.970;2023-07-24T05:58:09;99918.47;;;18.98;100.00
36062;BME280;22123;52.412;20.970;2023-07-24T06:00:35;99908.88;;;18.96;100.00
36062;BME280;22123;52.412;20.970;2023-07-24T06:03:01;99897.97;;;18.84;100.00
36062;BME280;22123;52.412;20.970;2023-07-24T06:05:26;99903.41;;;18.84;100.00
36062;BME280;22123;52.412;20.970;2023-07-24T06:07:52;99920.97;;;19.00;100.00
36062;BME280;22123;52.412;20.970;2023-07-24T06:10:18;99914.25;;;18.90;100.00
36062;BME280;22123;52.412;20.970;2023-07-24T06:12:44;99917.91;;;18.96;100.00
36062;BME280;22123;52.412;20.970;2023-07-24T06:15:10;99927.84;;;19.02;100.00
36062;BME280;22123;52.412;20.970;2023-07-24T06:17:36;99905.66;;;18.99;100.00
36062;BME280;22123;52.412;20.970;2023-07-24T06:20:02;99895.00;;;18.97;100.00
36062;BME280;22123;52.412;20.970;2023-07-24T06:22:27;99907.69;;;19.03;100.00
36062;BME280;22123;52.412;20.970;2023-07-24T06:24:53;99907.31;;;19.00;100.00
36062;BME280;22123;52.412;20.970;2023-07-24T06:27:19;99936.88;;;19.32;100.00
36062;BME280;22123;52.412;20.970;2023-07-24T06:29:45;99919.25;;;19.22;100.00
36062;BME280;22123;52.412;20.970;2023-07-24T06:32:11;99913.34;;;19.14;100.00
36062;BME280;22123;52.412;20.970;2023-07-24T06:34:37;99890.22;;;19.04;100.00
36062;BME280;22123;52.412;20.970;2023-07-24T06:37:03;99885.00;;;19.03;100.00
36062;BME280;22123;52.412;20.970;2023-07-24T06:39:29;99899.53;;;19.20;100.00
36062;BME280;22123;52.412;20.970;2023-07-24T06:41:55;99909.00;;;19.29;100.00
36062;BME280;22123;52.412;20.970;2023-07-24T06:44:21;99917.72;;;19.43;100.00
36062;BME280;22123;52.412;20.970;2023-07-24T06:46:47;99902.94;;;19.39;100.00
36062;BME280;22123;52.412;20.970;2023-07-24T06:49:13;99909.19;;;19.40;100.00
36062;BME280;22123;52.412;20.970;2023-07-24T06:51:39;99895.31;;;19.41;100.00
36062;BME280;22123;52.412;20.970;2023-07-24T06:54:05;99877.25;;;19.23;100.00
36062;BME280;22123;52.412;20.970;2023-07-24T06:56:31;99914.91;;;19.38;100.00
36062;BME280;22123;52.412;20.970;2023-07-24T06:58:57;99902.03;;;19.51;100.00
36062;BME280;22123;52.412;20.970;2023-07-24T07:01:23;99881.91;;;19.40;100.00
36062;BME280;22123;52.412;20.970;2023-07-24T07:03:49;99892.38;;;19.60;100.00
36062;BME280;22123;52.412;20.970;2023-07-24T07:06:15;99896.59;;;19.68;100.00
36062;BME280;22123;52.412;20.970;2023-07-24T07:08:41;99906.41;;;19.80;100.00
36062;BME280;22123;52.412;20.970;2023-07-24T07:11:07;99863.81;;;19.68;100.00
36062;BME280;22123;52.412;20.970;2023-07-24T07:13:33;99874.56;;;19.86;100.00
36062;BME280;22123;52.412;20.970;2023-07-24T07:15:58;99887.22;;;20.09;100.00
36062;BME280;22123;52.412;20.970;2023-07-24T07:18:24;99867.72;;;20.23;100.00
36062;BME280;22123;52.412;20.970;2023-07-24T07:20:52;99901.47;;;20.50;100.00
36062;BME280;22123;52.412;20.970;2023-07-24T07:23:19;99894.16;;;20.56;100.00
36062;BME280;22123;52.412;20.970;2023-07-24T07:25:46;99872.88;;;20.58;100.00
36062;BME280;22123;52.412;20.970;2023-07-24T07:28:13;99866.88;;;20.78;100.00
36062;BME280;22123;52.412;20.970;2023-07-24T07:30:39;99890.78;;;21.10;100.00
36062;BME280;22123;52.412;20.970;2023-07-24T07:33:05;99889.09;;;21.31;100.00
36062;BME280;22123;52.412;20.970;2023-07-24T07:35:32;99912.34;;;21.51;100.00
36062;BME280;22123;52.412;20.970;2023-07-24T07:37:58;99906.47;;;21.42;100.00
36062;BME280;22123;52.412;20.970;2023-07-24T07:40:24;99911.81;;;21.32;100.00
36062;BME280;22123;52.412;20.970;2023-07-24T07:42:50;99898.19;;;21.37;100.00
36062;BME280;22123;52.412;20.970;2023-07-24T07:45:16;99897.88;;;21.33;100.00
36062;BME280;22123;52.412;20.970;2023-07-24T07:47:42;99895.91;;;21.29;100.00
36062;BME280;22123;52.412;20.970;2023-07-24T07:50:08;99911.34;;;21.40;100.00
36062;BME280;22123;52.412;20.970;2023-07-24T07:52:34;99861.66;;;20.99;100.00
36062;BME280;22123;52.412;20.970;2023-07-24T07:54:59;99895.22;;;21.16;100.00
36062;BME280;22123;52.412;20.970;2023-07-24T07:57:25;99888.06;;;21.10;100.00
36062;BME280;22123;52.412;20.970;2023-07-24T07:59:51;99895.53;;;21.20;100.00
36062;BME280;22123;52.412;20.970;2023-07-24T08:02:17;99895.75;;;21.13;100.00
36062;BME280;22123;52.412;20.970;2023-07-24T08:04:43;99886.91;;;21.06;100.00
36062;BME280;22123;52.412;20.970;2023-07-24T08:07:09;99901.06;;;21.25;100.00
36062;BME280;22123;52.412;20.970;2023-07-24T08:09:35;99904.97;;;21.29;100.00
36062;BME280;22123;52.412;20.970;2023-07-24T08:12:01;99881.47;;;21.11;100.00
36062;BME280;22123;52.412;20.970;2023-07-24T08:14:26;99882.63;;;21.15;100.00
36062;BME280;22123;52.412;20.970;2023-07-24T08:16:52;99883.66;;;21.09;100.00
36062;BME280;22123;52.412;20.970;2023-07-24T08:19:18;99887.69;;;21.01;100.00
36062;BME280;22123;52.412;20.970;2023-07-24T08:21:44;99896.88;;;20.95;100.00
36062;BME280;22123;52.412;20.970;2023-07-24T08:24:10;99912.31;;;21.01;100.00
36062;BME280;22123;52.412;20.970;2023-07-24T08:26:36;99907.06;;;21.00;100.00
36062;BME280;22123;52.412;20.970;2023-07-24T08:29:02;99904.91;;;21.02;100.00
36062;BME280;22123;52.412;20.970;2023-07-24T08:31:29;99901.41;;;21.07;100.00
36062;BME280;22123;52.412;20.970;2023-07-24T08:33:55;99871.28;;;21.01;100.00
36062;BME280;22123;52.412;20.970;2023-07-24T08:36:20;99897.47;;;21.19;100.00
36062;BME280;22123;52.412;20.970;2023-07-24T08:38:46;99890.91;;;21.21;100.00
36062;BME280;22123;52.412;20.970;2023-07-24T08:41:13;99880.78;;;21.21;100.00
36062;BME280;22123;52.412;20.970;2023-07-24T08:43:41;99897.34;;;21.59;100.00
36062;BME280;22123;52.412;20.970;2023-07-24T08:46:08;99910.34;;;21.74;100.00
36062;BME280;22123;52.412;20.970;2023-07-24T08:48:42;99900.09;;;21.91;100.00
36062;BME280;22123;52.412;20.970;2023-07-24T08:51:10;99897.22;;;22.08;100.00
36062;BME280;22123;52.412;20.970;2023-07-24T08:53:39;99892.06;;;22.17;100.00
36062;BME280;22123;52.412;20.970;2023-07-24T08:58:33;99881.38;;;22.15;100.00
36062;BME280;22123;52.412;20.970;2023-07-24T09:01:00;99906.00;;;22.48;100.00
36062;BME280;22123;52.412;20.970;2023-07-24T09:03:26;99905.22;;;22.52;100.00
36062;BME280;22123;52.412;20.970;2023-07-24T09:05:53;99893.34;;;22.42;100.00
36062;BME280;22123;52.412;20.970;2023-07-24T09:08:33;99907.97;;;22.52;100.00
36062;BME280;22123;52.412;20.970;2023-07-24T09:11:00;99885.53;;;22.66;100.00
36062;BME280;22123;52.412;20.970;2023-07-24T09:13:27;99876.59;;;22.86;100.00
36062;BME280;22123;52.412;20.970;2023-07-24T09:15:53;99846.97;;;22.98;100.00
36062;BME280;22123;52.412;20.970;2023-07-24T09:18:19;99861.00;;;23.07;100.00
36062;BME280;22123;52.412;20.970;2023-07-24T09:20:45;99880.84;;;23.19;100.00
36062;BME280;22123;52.412;20.970;2023-07-24T09:23:12;99870.63;;;23.09;100.00
36062;BME280;22123;52.412;20.970;2023-07-24T09:25:40;99859.97;;;23.13;100.00
36062;BME280;22123;52.412;20.970;2023-07-24T09:28:13;99861.00;;;23.07;100.00
36062;BME280;22123;52.412;20.970;2023-07-24T09:30:40;99853.34;;;23.09;100.00
36062;BME280;22123;52.412;20.970;2023-07-24T09:33:06;99843.50;;;23.18;100.00
36062;BME280;22123;52.412;20.970;2023-07-24T09:35:32;99846.81;;;23.46;100.00
36062;BME280;22123;52.412;20.970;2023-07-24T09:38:09;99863.88;;;23.79;100.00
36062;BME280;22123;52.412;20.970;2023-07-24T09:40:43;99838.34;;;23.68;100.00
36062;BME280;22123;52.412;20.970;2023-07-24T09:43:18;99869.94;;;23.81;100.00
36062;BME280;22123;52.412;20.970;2023-07-24T09:45:45;99844.09;;;23.61;100.00
36062;BME280;22123;52.412;20.970;2023-07-24T09:48:12;99840.81;;;23.70;100.00
36062;BME280;22123;52.412;20.970;2023-07-24T09:50:39;99846.84;;;23.92;100.00
36062;BME280;22123;52.412;20.970;2023-07-24T09:53:05;99833.66;;;23.74;100.00
36062;BME280;22123;52.412;20.970;2023-07-24T09:55:57;99838.88;;;24.06;100.00
36062;BME280;22123;52.412;20.970;2023-07-24T09:58:24;99806.97;;;24.05;100.00
36062;BME280;22123;52.412;20.970;2023-07-24T10:00:54;99828.66;;;24.38;100.00
36062;BME280;22123;52.412;20.970;2023-07-24T10:03:21;99807.97;;;24.51;100.00
36062;BME280;22123;52.412;20.970;2023-07-24T10:05:48;99818.94;;;24.56;100.00
36062;BME280;22123;52.412;20.970;2023-07-24T10:08:15;99798.00;;;24.65;100.00
36062;BME280;22123;52.412;20.970;2023-07-24T10:10:41;99786.63;;;24.87;100.00
36062;BME280;22123;52.412;20.970;2023-07-24T10:13:08;99796.34;;;25.19;100.00
36062;BME280;22123;52.412;20.970;2023-07-24T10:15:35;99776.16;;;24.89;100.00
36062;BME280;22123;52.412;20.970;2023-07-24T10:18:06;99782.00;;;25.22;100.00
36062;BME280;22123;52.412;20.970;2023-07-24T10:20:36;99767.00;;;25.44;100.00
36062;BME280;22123;52.412;20.970;2023-07-24T10:23:03;99789.91;;;25.68;100.00
36062;BME280;22123;52.412;20.970;2023-07-24T10:25:32;99743.47;;;25.57;100.00
36062;BME280;22123;52.412;20.970;2023-07-24T10:30:29;99773.25;;;26.37;100.00
36062;BME280;22123;52.412;20.970;2023-07-24T10:33:12;99783.59;;;27.08;100.00
36062;BME280;22123;52.412;20.970;2023-07-24T10:38:07;99763.97;;;26.47;100.00
36062;BME280;22123;52.412;20.970;2023-07-24T10:40:33;99779.22;;;26.45;100.00
36062;BME280;22123;52.412;20.970;2023-07-24T10:43:01;99736.22;;;26.38;100.00
36062;BME280;22123;52.412;20.970;2023-07-24T10:45:41;99758.47;;;26.47;100.00
36062;BME280;22123;52.412;20.970;2023-07-24T10:48:07;99740.66;;;26.59;100.00
36062;BME280;22123;52.412;20.970;2023-07-24T10:50:39;99745.56;;;26.43;100.00
36062;BME280;22123;52.412;20.970;2023-07-24T10:53:06;99726.06;;;26.15;100.00
36062;BME280;22123;52.412;20.970;2023-07-24T10:55:32;99725.69;;;26.22;100.00
36062;BME280;22123;52.412;20.970;2023-07-24T10:57:58;99720.25;;;26.16;100.00
36062;BME280;22123;52.412;20.970;2023-07-24T11:00:23;99746.00;;;26.07;100.00
36062;BME280;22123;52.412;20.970;2023-07-24T11:02:52;99739.09;;;25.80;100.00
36062;BME280;22123;52.412;20.970;2023-07-24T11:05:18;99724.91;;;26.40;100.00
36062;BME280;22123;52.412;20.970;2023-07-24T11:07:44;99713.25;;;27.99;100.00
36062;BME280;22123;52.412;20.970;2023-07-24T11:10:18;99717.19;;;29.67;100.00
36062;BME280;22123;52.412;20.970;2023-07-24T11:12:44;99696.59;;;30.92;100.00
36062;BME280;22123;52.412;20.970;2023-07-24T11:15:11;99701.63;;;31.99;94.28
36062;BME280;22123;52.412;20.970;2023-07-24T11:17:38;99683.66;;;32.26;83.80
36062;BME280;22123;52.412;20.970;2023-07-24T11:20:14;99682.38;;;32.66;72.89
36062;BME280;22123;52.412;20.970;2023-07-24T11:22:42;99710.38;;;32.90;61.68
36062;BME280;22123;52.412;20.970;2023-07-24T11:25:10;99708.69;;;32.98;59.30
36062;BME280;22123;52.412;20.970;2023-07-24T11:27:42;99707.75;;;32.73;61.23
36062;BME280;22123;52.412;20.970;2023-07-24T11:30:12;99700.19;;;31.36;57.24
36062;BME280;22123;52.412;20.970;2023-07-24T11:32:40;99708.03;;;30.47;62.60
36062;BME280;22123;52.412;20.970;2023-07-24T11:35:06;99698.13;;;28.97;62.20
36062;BME280;22123;52.412;20.970;2023-07-24T11:37:34;99709.69;;;28.77;65.91
36062;BME280;22123;52.412;20.970;2023-07-24T11:40:02;99700.75;;;28.43;62.91
36062;BME280;22123;52.412;20.970;2023-07-24T11:42:28;99687.13;;;28.33;67.68
36062;BME280;22123;52.412;20.970;2023-07-24T11:44:54;99691.69;;;28.66;70.79
36062;BME280;22123;52.412;20.970;2023-07-24T11:47:20;99672.81;;;28.54;64.83
36062;BME280;22123;52.412;20.970;2023-07-24T11:49:59;99689.22;;;28.50;73.05
36062;BME280;22123;52.412;20.970;2023-07-24T11:52:25;99667.00;;;28.41;71.92
36062;BME280;22123;52.412;20.970;2023-07-24T11:54:58;99673.69;;;28.40;68.00
36062;BME280;22123;52.412;20.970;2023-07-24T11:57:24;99675.03;;;28.29;76.63
36062;BME280;22123;52.412;20.970;2023-07-24T11:59:50;99649.66;;;27.99;65.41
36062;BME280;22123;52.412;20.970;2023-07-24T12:02:16;99671.38;;;28.06;67.07
36062;BME280;22123;52.412;20.970;2023-07-24T12:04:42;99679.03;;;27.95;65.15
36062;BME280;22123;52.412;20.970;2023-07-24T12:07:08;99658.84;;;27.81;69.39
36062;BME280;22123;52.412;20.970;2023-07-24T12:09:34;99666.84;;;27.68;63.33
36062;BME280;22123;52.412;20.970;2023-07-24T12:12:00;99648.50;;;27.45;64.13
36062;BME280;22123;52.412;20.970;2023-07-24T12:14:26;99657.50;;;27.64;61.78
36062;BME280;22123;52.412;20.970;2023-07-24T12:17:02;99637.25;;;27.69;70.52
36062;BME280;22123;52.412;20.970;2023-07-24T12:19:28;99630.78;;;27.73;70.42
36062;BME280;22123;52.412;20.970;2023-07-24T12:21:54;99641.00;;;27.59;64.06
36062;BME280;22123;52.412;20.970;2023-07-24T12:24:19;99614.63;;;27.39;62.43
36062;BME280;22123;52.412;20.970;2023-07-24T12:26:45;99613.81;;;27.52;60.67
36062;BME280;22123;52.412;20.970;2023-07-24T12:29:11;99605.19;;;27.54;63.54
36062;BME280;22123;52.412;20.970;2023-07-24T12:31:37;99618.81;;;27.64;63.94
36062;BME280;22123;52.412;20.970;2023-07-24T12:34:03;99621.50;;;27.69;63.33
36062;BME280;22123;52.412;20.970;2023-07-24T12:36:29;99609.00;;;27.58;64.74
36062;BME280;22123;52.412;20.970;2023-07-24T12:38:55;99625.06;;;27.84;62.11
36062;BME280;22123;52.412;20.970;2023-07-24T12:41:21;99592.47;;;27.81;60.68
36062;BME280;22123;52.412;20.970;2023-07-24T12:43:46;99594.13;;;27.82;61.26
36062;BME280;22123;52.412;20.970;2023-07-24T12:46:12;99574.09;;;27.62;58.82
36062;BME280;22123;52.412;20.970;2023-07-24T12:48:38;99559.44;;;27.48;60.20
36062;BME280;22123;52.412;20.970;2023-07-24T12:51:04;99600.69;;;27.58;65.03